Fédération internationale de Ski
Member Section
Print

OFFICIAL RESULTS - THIRD TRAINING

PyeongChang (KOR) 10.02.2018

Training - Men's Training OFFICIAL RESULTS - THIRD TRAINING

Race codex : 0226
Valid for FIS Points : NO



Jury
TD FIS GURZELER THOMAS SUI
Referee Markus Waldner FIS
Assistant Referee Hannes Trinkl FIS
Chief of Race Inki Hong KOR
Technical Data
Start Altitude 1370 m.
Finish Altitude 545 m.
Vertical Drop 825 m.
Course Length 2965 m.
Homologation Number 11959/01/16
Run 1
Course Setter Hannes Trinkl FIS
Number of Gates 33
Start Time 11:00
 
Show more info»

Competitors

Rank Bib FIS Code Name Year Nation Total Time Diff.
 1  17  53980 KRIECHMAYR Vincent  1991  AUT   1:40.76   
 2  13  421483 JANSRUD Kjetil  1985  NOR   1:40.88  +0.12
 3  11  421328 SVINDAL Aksel Lund  1982  NOR   1:41.11  +0.35
 4  4  194190 ROGER Brice  1990  FRA   1:41.32  +0.56
 5  14  53817 FRANZ Max  1989  AUT   1:41.37  +0.61
 6  15  291459 PARIS Dominik  1989  ITA   1:41.46  +0.70
 7  5  202535 DRESSEN Thomas  1993  GER   1:41.51  +0.75
 8  22  934643 GOLDBERG Jared  1991  USA   1:41.57  +0.81
 9  12  6530104 BENNETT Bryce  1992  USA   1:41.61  +0.85
 9  6  422139 KILDE Aleksander Aamodt  1992  NOR   1:41.61  +0.85
 11  9  192746 THEAUX Adrien  1984  FRA   1:41.64  +0.88
 12  1  292455 FILL Peter  1982  ITA   1:41.68  +0.92
 13  40  531452 BIESEMEYER Thomas  1989  USA   1:41.71  +0.95
 14  2  191740 CLAREY Johan  1981  FRA   1:41.74  +0.98
 15  16  561216 KLINE Bostjan  1991  SLO   1:41.87  +1.11
 16  27  511529 GISIN Marc  1988  SUI   1:41.88  +1.12
 17  35  194298 GIEZENDANNER Blaise  1991  FRA   1:41.90  +1.14
 18  23  511313 JANKA Carlo  1986  SUI   1:41.95  +1.19
 19  10  511513 CAVIEZEL Mauro  1988  SUI   1:41.99  +1.23
 20  38  6530319 COCHRAN-SIEGLE Ryan  1992  USA   1:42.12  +1.36
 21  30  511139 KUENG Patrick  1984  SUI   1:42.25  +1.49
 22  7  53902 MAYER Matthias  1990  AUT   1:42.30  +1.54
 23  39  930024 MAPLE Wiley  1990  USA   1:42.31  +1.55
 24  29  202059 FERSTL Josef  1988  GER   1:42.44  +1.68
 25  18  102899 OSBORNE-PARADIS Manuel  1984  CAN   1:42.50  +1.74
 26  28  512039 ROULIN Gilles  1994  SUI   1:42.75  +1.99
 27  42  293550 MARSAGLIA Matteo  1985  ITA   1:42.80  +2.04
 28  25  103271 THOMSEN Benjamin  1987  CAN   1:42.82  +2.06
 29  21  6290985 BUZZI Emanuele  1994  ITA   1:42.85  +2.09
 30  34  310426 VUKICEVIC Marko  1992  SRB   1:42.87  +2.11
 31  26  561255 CATER Martin  1992  SLO   1:42.92  +2.16
 32  61  193967 MUFFAT-JEANDET Victor  1989  FRA   1:43.05  +2.29
 33  33  561217 KOSI Klemen  1991  SLO   1:43.19  +2.43
 34  43  180570 ROMAR Andreas  1989  FIN   1:43.22  +2.46
 35  45  170131 FAARUP Christoffer  1992  DEN   1:43.29  +2.53
 36  19  50742 REICHELT Hannes  1980  AUT   1:43.33  +2.57
 37  51  151215 FOREJTEK Filip  1997  CZE   1:43.39  +2.63
 38  32  194364 PINTURAULT Alexis  1991  FRA   1:43.45  +2.69
 39  64  481327 TRIKHICHEV Pavel  1992  RUS   1:43.50  +2.74
 40  44  20398 VERDU Joan  1995  AND   1:43.67  +2.91
 41  46  192504 MERMILLOD BLONDIN Thomas  1984  FRA   1:43.73  +2.97
 42  56  104531 CRAWFORD James  1997  CAN   1:43.88  +3.12
 43  75  54320 SCHWARZ Marco  1995  AUT   1:43.91  +3.15
 44  41  100558 COOK Dustin  1989  CAN   1:43.94  +3.18
 45  48  561310 HROBAT Miha  1995  SLO   1:43.95  +3.19
 45  3  511383 FEUZ Beat  1987  SUI   1:43.95  +3.19
 47  54  511896 MURISIER Justin  1992  SUI   1:44.01  +3.25
 48  36  104096 THOMPSON Broderick  1994  CAN   1:44.22  +3.46
 49  31  53831 HIRSCHER Marcel  1989  AUT   1:44.42  +3.66
 50  53  150743 BERNDT Ondrej  1988  CZE   1:44.45  +3.69
 51  85  561322 HADALIN Stefan  1995  SLO   1:44.50  +3.74
 52  37  380292 ZRNCIC DIM Natko  1986  CRO   1:44.55  +3.79
 53  66  380335 ZUBCIC Filip  1993  CRO   1:44.56  +3.80
 54  49  110324 VON APPEN Henrik  1994  CHI   1:44.60  +3.84
 55  52  20324 OLIVERAS Marc  1991  AND   1:44.75  +3.99
 56  62  511983 AERNI Luca  1993  SUI   1:44.90  +4.14
 57  65  670037 ZAKURDAEV Igor  1987  KAZ   1:45.05  +4.29
 57  8  293006 INNERHOFER Christof  1984  ITA   1:45.05  +4.29
 59  84  700830 ZAMPA Adam  1990  SVK   1:45.13  +4.37
 60  59  291318 TONETTI Riccardo  1989  ITA   1:45.42  +4.66
 61  58  102271 HUDEC Jan  1981  CZE   1:45.56  +4.80
 62  78  550054 ZVEJNIEKS Kristaps  1992  LAT   1:45.60  +4.84
 63  67  350095 PFIFFNER Marco  1994  LIE   1:45.77  +5.01
 64  70  660021 DANILOCHKIN Yuri  1991  BLR   1:45.94  +5.18
 65  50  430472 KLUSAK Michal  1990  POL   1:46.02  +5.26
 66  83  700868 FALAT Matej  1993  SVK   1:46.22  +5.46
 67  82  54106 BREITFUSS KAMMERLANDER Simon  1992  BOL   1:46.84  +6.08
 68  68  310421 STEVOVIC Marko  1996  SRB   1:47.74  +6.98
 69  76  320391 KIM Dong Woo  1995  KOR   1:47.91  +7.15
 70  63  151238 ZABYSTRAN Jan  1998  CZE   1:48.59  +7.83
 71  74  270047 MC MILLAN Patrick  1991  IRL   1:49.83  +9.07
 72  79  380290 SAMSAL Dalibor  1985  HUN   1:49.99  +9.23
 73  73  690694 KOVBASNYUK Ivan  1993  UKR   1:50.07  +9.31
 74  20  200379 SANDER Andreas  1989  GER   1:50.83  +10.07
 75  77  240139 KEKESI Marton  1995  HUN   1:51.16  +10.40
Did not finish
   71  422082 FOSS-SOLEVAAG Sebastian  1991  NOR     
Did not start
   81  942023 TAHIRI Albin  1989  KOS     
   80  700879 ZAMPA Andreas  1993  SVK     
   72  202451 STRASSER Linus  1992  GER     
   69  370022 JENOT Olivier  1988  MON     
   60  534562 LIGETY Ted  1984  USA     
   57  511638 TUMLER Thomas  1989  SUI     
   55  54117 HOERL Christopher  1989  MDA     
   47  530939 WEIBRECHT Andrew  1986  USA     
   24  194167 MUZATON Maxence  1990  FRA